sensor_id;sensor_type;location;lat;lon;timestamp;P1;durP1;ratioP1;P2;durP2;ratioP2
25609;SDS011;13479;49.044;8.716;2023-07-31T04:02:00;5.07;;;1.58;;
25609;SDS011;13479;49.044;8.716;2023-07-31T04:04:25;5.65;;;1.50;;
25609;SDS011;13479;49.044;8.716;2023-07-31T04:06:50;4.85;;;1.48;;
25609;SDS011;13479;49.044;8.716;2023-07-31T04:09:16;4.85;;;1.50;;
25609;SDS011;13479;49.044;8.716;2023-07-31T04:11:41;3.95;;;1.50;;
25609;SDS011;13479;49.044;8.716;2023-07-31T04:14:06;4.72;;;1.58;;
25609;SDS011;13479;49.044;8.716;2023-07-31T04:16:32;3.75;;;1.30;;
25609;SDS011;13479;49.044;8.716;2023-07-31T04:18:57;2.25;;;1.27;;
25609;SDS011;13479;49.044;8.716;2023-07-31T04:21:22;3.97;;;1.55;;
25609;SDS011;13479;49.044;8.716;2023-07-31T04:23:47;7.55;;;1.70;;
25609;SDS011;13479;49.044;8.716;2023-07-31T04:26:13;3.05;;;1.30;;
25609;SDS011;13479;49.044;8.716;2023-07-31T04:28:38;5.25;;;1.50;;
25609;SDS011;13479;49.044;8.716;2023-07-31T04:31:03;6.40;;;1.83;;
25609;SDS011;13479;49.044;8.716;2023-07-31T04:33:29;4.53;;;1.55;;
25609;SDS011;13479;49.044;8.716;2023-07-31T04:35:54;4.07;;;1.38;;
25609;SDS011;13479;49.044;8.716;2023-07-31T04:38:20;7.32;;;1.42;;
25609;SDS011;13479;49.044;8.716;2023-07-31T04:40:46;7.15;;;1.67;;
25609;SDS011;13479;49.044;8.716;2023-07-31T04:43:11;4.07;;;1.73;;
25609;SDS011;13479;49.044;8.716;2023-07-31T04:45:36;3.58;;;1.52;;
25609;SDS011;13479;49.044;8.716;2023-07-31T04:48:02;3.97;;;1.45;;
25609;SDS011;13479;49.044;8.716;2023-07-31T04:50:27;5.05;;;1.33;;
25609;SDS011;13479;49.044;8.716;2023-07-31T04:52:52;3.45;;;1.15;;
25609;SDS011;13479;49.044;8.716;2023-07-31T04:55:18;3.85;;;1.50;;
25609;SDS011;13479;49.044;8.716;2023-07-31T04:57:43;5.35;;;1.40;;
25609;SDS011;13479;49.044;8.716;2023-07-31T05:00:08;3.65;;;1.30;;
25609;SDS011;13479;49.044;8.716;2023-07-31T05:02:34;4.63;;;1.60;;
25609;SDS011;13479;49.044;8.716;2023-07-31T05:04:59;4.07;;;1.58;;
25609;SDS011;13479;49.044;8.716;2023-07-31T05:07:24;5.10;;;1.38;;
25609;SDS011;13479;49.044;8.716;2023-07-31T05:09:49;4.90;;;1.58;;
25609;SDS011;13479;49.044;8.716;2023-07-31T05:12:15;4.53;;;1.35;;
25609;SDS011;13479;49.044;8.716;2023-07-31T05:14:40;4.93;;;1.42;;
25609;SDS011;13479;49.044;8.716;2023-07-31T05:17:05;6.18;;;1.45;;
25609;SDS011;13479;49.044;8.716;2023-07-31T05:19:30;5.95;;;1.40;;
25609;SDS011;13479;49.044;8.716;2023-07-31T05:21:56;7.63;;;1.60;;
25609;SDS011;13479;49.044;8.716;2023-07-31T05:24:21;4.38;;;1.58;;
25609;SDS011;13479;49.044;8.716;2023-07-31T05:26:46;5.50;;;1.63;;
25609;SDS011;13479;49.044;8.716;2023-07-31T05:29:12;5.30;;;1.50;;
25609;SDS011;13479;49.044;8.716;2023-07-31T05:31:37;6.00;;;1.80;;
25609;SDS011;13479;49.044;8.716;2023-07-31T05:34:03;3.50;;;1.55;;
25609;SDS011;13479;49.044;8.716;2023-07-31T05:36:28;7.20;;;1.63;;
25609;SDS011;13479;49.044;8.716;2023-07-31T05:38:54;5.68;;;1.75;;
25609;SDS011;13479;49.044;8.716;2023-07-31T05:41:19;3.30;;;1.40;;
25609;SDS011;13479;49.044;8.716;2023-07-31T05:43:44;8.70;;;1.70;;
25609;SDS011;13479;49.044;8.716;2023-07-31T05:46:10;4.82;;;1.50;;
25609;SDS011;13479;49.044;8.716;2023-07-31T05:48:36;6.47;;;1.90;;
25609;SDS011;13479;49.044;8.716;2023-07-31T05:51:02;5.45;;;1.73;;
25609;SDS011;13479;49.044;8.716;2023-07-31T05:53:27;5.90;;;1.77;;
25609;SDS011;13479;49.044;8.716;2023-07-31T05:55:53;8.15;;;1.95;;
25609;SDS011;13479;49.044;8.716;2023-07-31T05:58:18;6.05;;;1.58;;
25609;SDS011;13479;49.044;8.716;2023-07-31T06:00:43;4.65;;;1.67;;
25609;SDS011;13479;49.044;8.716;2023-07-31T06:03:08;4.13;;;1.33;;
25609;SDS011;13479;49.044;8.716;2023-07-31T06:05:34;9.02;;;2.00;;
25609;SDS011;13479;49.044;8.716;2023-07-31T06:07:59;6.07;;;1.63;;
25609;SDS011;13479;49.044;8.716;2023-07-31T06:10:25;5.65;;;1.70;;
25609;SDS011;13479;49.044;8.716;2023-07-31T06:12:51;6.40;;;1.95;;
25609;SDS011;13479;49.044;8.716;2023-07-31T06:15:16;5.40;;;1.60;;
25609;SDS011;13479;49.044;8.716;2023-07-31T06:17:44;4.97;;;1.50;;
25609;SDS011;13479;49.044;8.716;2023-07-31T06:20:09;3.95;;;1.70;;
25609;SDS011;13479;49.044;8.716;2023-07-31T06:22:35;6.15;;;1.77;;
25609;SDS011;13479;49.044;8.716;2023-07-31T06:25:00;4.28;;;1.50;;
25609;SDS011;13479;49.044;8.716;2023-07-31T06:27:26;6.07;;;1.77;;
25609;SDS011;13479;49.044;8.716;2023-07-31T06:29:51;5.25;;;1.77;;
25609;SDS011;13479;49.044;8.716;2023-07-31T06:32:16;4.85;;;1.58;;
25609;SDS011;13479;49.044;8.716;2023-07-31T06:34:41;6.97;;;1.88;;
25609;SDS011;13479;49.044;8.716;2023-07-31T06:37:07;4.25;;;1.55;;
25609;SDS011;13479;49.044;8.716;2023-07-31T06:39:32;4.68;;;1.50;;
25609;SDS011;13479;49.044;8.716;2023-07-31T06:41:57;3.83;;;1.60;;
25609;SDS011;13479;49.044;8.716;2023-07-31T06:44:22;6.15;;;1.70;;
25609;SDS011;13479;49.044;8.716;2023-07-31T06:46:48;6.03;;;1.70;;
25609;SDS011;13479;49.044;8.716;2023-07-31T06:49:13;3.95;;;1.73;;
25609;SDS011;13479;49.044;8.716;2023-07-31T06:51:40;4.97;;;1.58;;
25609;SDS011;13479;49.044;8.716;2023-07-31T06:54:05;8.50;;;1.80;;
25609;SDS011;13479;49.044;8.716;2023-07-31T06:56:31;5.18;;;1.73;;
25609;SDS011;13479;49.044;8.716;2023-07-31T06:58:56;4.85;;;1.80;;
25609;SDS011;13479;49.044;8.716;2023-07-31T07:01:21;7.53;;;1.67;;
25609;SDS011;13479;49.044;8.716;2023-07-31T07:03:46;4.75;;;1.70;;
25609;SDS011;13479;49.044;8.716;2023-07-31T07:06:12;5.25;;;1.65;;
25609;SDS011;13479;49.044;8.716;2023-07-31T07:08:37;5.35;;;1.60;;
25609;SDS011;13479;49.044;8.716;2023-07-31T07:11:02;9.63;;;1.67;;
25609;SDS011;13479;49.044;8.716;2023-07-31T07:13:27;7.65;;;1.60;;
25609;SDS011;13479;49.044;8.716;2023-07-31T07:15:53;5.93;;;1.60;;
25609;SDS011;13479;49.044;8.716;2023-07-31T07:18:18;6.35;;;1.83;;
25609;SDS011;13479;49.044;8.716;2023-07-31T07:20:50;3.45;;;1.40;;
25609;SDS011;13479;49.044;8.716;2023-07-31T07:23:16;6.47;;;1.73;;
25609;SDS011;13479;49.044;8.716;2023-07-31T07:25:42;6.30;;;1.70;;
25609;SDS011;13479;49.044;8.716;2023-07-31T07:28:08;4.25;;;1.73;;
25609;SDS011;13479;49.044;8.716;2023-07-31T07:30:33;6.90;;;1.60;;
25609;SDS011;13479;49.044;8.716;2023-07-31T07:32:58;5.15;;;1.70;;
25609;SDS011;13479;49.044;8.716;2023-07-31T07:35:24;5.38;;;1.70;;
25609;SDS011;13479;49.044;8.716;2023-07-31T07:37:49;5.07;;;1.77;;
25609;SDS011;13479;49.044;8.716;2023-07-31T07:40:18;6.80;;;2.03;;
25609;SDS011;13479;49.044;8.716;2023-07-31T07:42:43;4.90;;;2.00;;
25609;SDS011;13479;49.044;8.716;2023-07-31T07:45:09;6.28;;;2.03;;
25609;SDS011;13479;49.044;8.716;2023-07-31T07:47:34;6.18;;;1.83;;
25609;SDS011;13479;49.044;8.716;2023-07-31T07:49:59;5.00;;;1.65;;
25609;SDS011;13479;49.044;8.716;2023-07-31T07:52:25;5.20;;;1.60;;
25609;SDS011;13479;49.044;8.716;2023-07-31T07:54:50;4.38;;;1.60;;
25609;SDS011;13479;49.044;8.716;2023-07-31T07:57:15;3.92;;;1.70;;
25609;SDS011;13479;49.044;8.716;2023-07-31T07:59:41;7.90;;;2.05;;
25609;SDS011;13479;49.044;8.716;2023-07-31T08:02:07;5.40;;;1.80;;
25609;SDS011;13479;49.044;8.716;2023-07-31T08:04:32;4.72;;;1.77;;
25609;SDS011;13479;49.044;8.716;2023-07-31T08:06:57;3.20;;;1.40;;
25609;SDS011;13479;49.044;8.716;2023-07-31T08:09:22;4.78;;;1.63;;
25609;SDS011;13479;49.044;8.716;2023-07-31T08:11:47;6.80;;;1.85;;
25609;SDS011;13479;49.044;8.716;2023-07-31T08:14:13;5.88;;;1.73;;
25609;SDS011;13479;49.044;8.716;2023-07-31T08:16:38;4.18;;;2.08;;
25609;SDS011;13479;49.044;8.716;2023-07-31T08:19:03;7.05;;;1.95;;
25609;SDS011;13479;49.044;8.716;2023-07-31T08:21:29;4.15;;;1.70;;
25609;SDS011;13479;49.044;8.716;2023-07-31T08:23:54;8.93;;;1.90;;
25609;SDS011;13479;49.044;8.716;2023-07-31T08:26:20;4.78;;;1.60;;
25609;SDS011;13479;49.044;8.716;2023-07-31T08:28:45;8.98;;;1.85;;
25609;SDS011;13479;49.044;8.716;2023-07-31T08:31:11;4.88;;;1.60;;
25609;SDS011;13479;49.044;8.716;2023-07-31T08:33:36;7.65;;;1.80;;
25609;SDS011;13479;49.044;8.716;2023-07-31T08:36:02;6.00;;;2.05;;
25609;SDS011;13479;49.044;8.716;2023-07-31T08:38:28;5.00;;;1.70;;
25609;SDS011;13479;49.044;8.716;2023-07-31T08:40:54;5.93;;;1.90;;
25609;SDS011;13479;49.044;8.716;2023-07-31T08:43:21;7.05;;;1.80;;
25609;SDS011;13479;49.044;8.716;2023-07-31T08:45:50;5.75;;;1.80;;
25609;SDS011;13479;49.044;8.716;2023-07-31T08:48:15;5.60;;;1.88;;
25609;SDS011;13479;49.044;8.716;2023-07-31T08:50:42;5.28;;;1.83;;
25609;SDS011;13479;49.044;8.716;2023-07-31T08:53:08;3.67;;;1.80;;
25609;SDS011;13479;49.044;8.716;2023-07-31T08:55:33;3.97;;;1.77;;
25609;SDS011;13479;49.044;8.716;2023-07-31T08:57:58;4.68;;;1.70;;
25609;SDS011;13479;49.044;8.716;2023-07-31T09:00:25;4.38;;;1.70;;
25609;SDS011;13479;49.044;8.716;2023-07-31T09:05:33;3.67;;;2.03;;
25609;SDS011;13479;49.044;8.716;2023-07-31T09:08:00;4.78;;;1.90;;
25609;SDS011;13479;49.044;8.716;2023-07-31T09:10:28;5.68;;;1.85;;
25609;SDS011;13479;49.044;8.716;2023-07-31T09:12:53;4.80;;;2.03;;
25609;SDS011;13479;49.044;8.716;2023-07-31T09:15:19;6.68;;;2.28;;
25609;SDS011;13479;49.044;8.716;2023-07-31T09:17:46;4.85;;;2.10;;
25609;SDS011;13479;49.044;8.716;2023-07-31T09:20:20;6.40;;;1.83;;
25609;SDS011;13479;49.044;8.716;2023-07-31T09:22:46;5.38;;;1.70;;
25609;SDS011;13479;49.044;8.716;2023-07-31T09:25:16;5.43;;;2.30;;
25609;SDS011;13479;49.044;8.716;2023-07-31T09:27:50;5.95;;;1.90;;
25609;SDS011;13479;49.044;8.716;2023-07-31T09:30:18;6.22;;;1.75;;
25609;SDS011;13479;49.044;8.716;2023-07-31T09:32:44;5.72;;;2.05;;
25609;SDS011;13479;49.044;8.716;2023-07-31T09:35:28;6.80;;;2.00;;
25609;SDS011;13479;49.044;8.716;2023-07-31T09:37:55;3.78;;;1.90;;
25609;SDS011;13479;49.044;8.716;2023-07-31T09:40:29;5.55;;;1.92;;
25609;SDS011;13479;49.044;8.716;2023-07-31T09:42:58;6.50;;;2.25;;
25609;SDS011;13479;49.044;8.716;2023-07-31T09:45:25;4.63;;;2.08;;
25609;SDS011;13479;49.044;8.716;2023-07-31T09:47:50;5.38;;;2.20;;
25609;SDS011;13479;49.044;8.716;2023-07-31T09:50:16;5.32;;;2.00;;
25609;SDS011;13479;49.044;8.716;2023-07-31T09:52:42;5.47;;;2.10;;
25609;SDS011;13479;49.044;8.716;2023-07-31T09:55:07;4.03;;;2.03;;
25609;SDS011;13479;49.044;8.716;2023-07-31T09:57:33;5.97;;;2.40;;
25609;SDS011;13479;49.044;8.716;2023-07-31T10:00:01;5.70;;;2.15;;
25609;SDS011;13479;49.044;8.716;2023-07-31T10:02:26;4.50;;;2.15;;
25609;SDS011;13479;49.044;8.716;2023-07-31T10:04:52;4.53;;;2.20;;
25609;SDS011;13479;49.044;8.716;2023-07-31T10:07:23;4.97;;;2.20;;
25609;SDS011;13479;49.044;8.716;2023-07-31T10:09:51;4.90;;;2.10;;
25609;SDS011;13479;49.044;8.716;2023-07-31T10:12:19;6.97;;;2.17;;
25609;SDS011;13479;49.044;8.716;2023-07-31T10:14:47;4.45;;;1.92;;
25609;SDS011;13479;49.044;8.716;2023-07-31T10:17:12;6.22;;;2.25;;
25609;SDS011;13479;49.044;8.716;2023-07-31T10:19:38;7.15;;;2.25;;
25609;SDS011;13479;49.044;8.716;2023-07-31T10:22:04;5.82;;;2.10;;
25609;SDS011;13479;49.044;8.716;2023-07-31T10:24:30;4.80;;;1.95;;
25609;SDS011;13479;49.044;8.716;2023-07-31T10:26:57;5.63;;;2.00;;
25609;SDS011;13479;49.044;8.716;2023-07-31T10:29:24;4.78;;;2.30;;
25609;SDS011;13479;49.044;8.716;2023-07-31T10:31:51;4.38;;;1.90;;
25609;SDS011;13479;49.044;8.716;2023-07-31T10:34:17;5.30;;;2.20;;
25609;SDS011;13479;49.044;8.716;2023-07-31T10:36:43;7.85;;;2.30;;
25609;SDS011;13479;49.044;8.716;2023-07-31T10:42:09;5.47;;;2.00;;
25609;SDS011;13479;49.044;8.716;2023-07-31T10:44:38;6.53;;;2.25;;
25609;SDS011;13479;49.044;8.716;2023-07-31T10:47:08;3.72;;;1.90;;
25609;SDS011;13479;49.044;8.716;2023-07-31T10:49:33;6.57;;;2.10;;
25609;SDS011;13479;49.044;8.716;2023-07-31T10:51:58;5.38;;;2.00;;
25609;SDS011;13479;49.044;8.716;2023-07-31T10:54:23;8.20;;;2.20;;
25609;SDS011;13479;49.044;8.716;2023-07-31T10:56:51;9.88;;;2.55;;
25609;SDS011;13479;49.044;8.716;2023-07-31T10:59:17;5.32;;;2.05;;
25609;SDS011;13479;49.044;8.716;2023-07-31T11:01:54;7.65;;;2.20;;
25609;SDS011;13479;49.044;8.716;2023-07-31T11:04:27;6.40;;;2.20;;
25609;SDS011;13479;49.044;8.716;2023-07-31T11:06:59;8.20;;;2.22;;
25609;SDS011;13479;49.044;8.716;2023-07-31T11:09:30;4.97;;;1.80;;
25609;SDS011;13479;49.044;8.716;2023-07-31T11:11:57;5.43;;;2.10;;
25609;SDS011;13479;49.044;8.716;2023-07-31T11:14:23;5.65;;;2.10;;
25609;SDS011;13479;49.044;8.716;2023-07-31T11:16:51;6.15;;;2.30;;
25609;SDS011;13479;49.044;8.716;2023-07-31T11:19:26;6.20;;;2.20;;
25609;SDS011;13479;49.044;8.716;2023-07-31T11:21:51;6.40;;;2.05;;
25609;SDS011;13479;49.044;8.716;2023-07-31T11:24:18;5.47;;;1.75;;
25609;SDS011;13479;49.044;8.716;2023-07-31T11:26:50;5.20;;;2.17;;
25609;SDS011;13479;49.044;8.716;2023-07-31T11:29:20;4.95;;;1.98;;
25609;SDS011;13479;49.044;8.716;2023-07-31T11:31:52;6.97;;;2.00;;
25609;SDS011;13479;49.044;8.716;2023-07-31T11:34:17;5.80;;;2.03;;
25609;SDS011;13479;49.044;8.716;2023-07-31T11:36:55;6.10;;;2.20;;
25609;SDS011;13479;49.044;8.716;2023-07-31T11:39:20;5.05;;;1.98;;
25609;SDS011;13479;49.044;8.716;2023-07-31T11:41:45;5.35;;;2.13;;
25609;SDS011;13479;49.044;8.716;2023-07-31T11:44:11;4.07;;;2.17;;
25609;SDS011;13479;49.044;8.716;2023-07-31T11:46:36;6.47;;;2.35;;
25609;SDS011;13479;49.044;8.716;2023-07-31T11:49:01;7.90;;;2.15;;
25609;SDS011;13479;49.044;8.716;2023-07-31T11:51:27;6.43;;;1.92;;
25609;SDS011;13479;49.044;8.716;2023-07-31T11:53:55;5.28;;;1.52;;
25609;SDS011;13479;49.044;8.716;2023-07-31T11:56:24;5.88;;;2.10;;
25609;SDS011;13479;49.044;8.716;2023-07-31T11:58:52;6.20;;;2.20;;
25609;SDS011;13479;49.044;8.716;2023-07-31T12:01:20;6.05;;;1.85;;
25609;SDS011;13479;49.044;8.716;2023-07-31T12:03:47;8.18;;;2.00;;
25609;SDS011;13479;49.044;8.716;2023-07-31T12:06:14;6.38;;;2.33;;
25609;SDS011;13479;49.044;8.716;2023-07-31T12:08:39;7.53;;;2.10;;
25609;SDS011;13479;49.044;8.716;2023-07-31T12:11:05;5.70;;;2.10;;
25609;SDS011;13479;49.044;8.716;2023-07-31T12:13:32;5.90;;;2.42;;
25609;SDS011;13479;49.044;8.716;2023-07-31T12:15:58;6.28;;;2.00;;
25609;SDS011;13479;49.044;8.716;2023-07-31T12:18:27;4.15;;;2.00;;
25609;SDS011;13479;49.044;8.716;2023-07-31T12:20:54;3.90;;;1.88;;
25609;SDS011;13479;49.044;8.716;2023-07-31T12:23:24;5.97;;;2.30;;
25609;SDS011;13479;49.044;8.716;2023-07-31T12:28:37;10.23;;;2.13;;
25609;SDS011;13479;49.044;8.716;2023-07-31T12:31:05;6.10;;;2.13;;
25609;SDS011;13479;49.044;8.716;2023-07-31T12:33:32;6.95;;;2.30;;
25609;SDS011;13479;49.044;8.716;2023-07-31T12:36:00;4.50;;;2.20;;
25609;SDS011;13479;49.044;8.716;2023-07-31T12:38:27;3.80;;;1.73;;
25609;SDS011;13479;49.044;8.716;2023-07-31T12:40:52;5.47;;;1.80;;
25609;SDS011;13479;49.044;8.716;2023-07-31T12:43:17;5.88;;;2.05;;
25609;SDS011;13479;49.044;8.716;2023-07-31T12:45:42;4.60;;;1.77;;
25609;SDS011;13479;49.044;8.716;2023-07-31T12:48:08;6.70;;;2.05;;
25609;SDS011;13479;49.044;8.716;2023-07-31T12:50:33;7.15;;;2.15;;
25609;SDS011;13479;49.044;8.716;2023-07-31T12:53:01;4.68;;;2.00;;
25609;SDS011;13479;49.044;8.716;2023-07-31T12:55:28;5.93;;;2.10;;
25609;SDS011;13479;49.044;8.716;2023-07-31T12:57:53;6.38;;;2.33;;
25609;SDS011;13479;49.044;8.716;2023-07-31T13:00:18;4.72;;;1.80;;
25609;SDS011;13479;49.044;8.716;2023-07-31T13:02:44;5.13;;;1.85;;
25609;SDS011;13479;49.044;8.716;2023-07-31T13:05:09;5.10;;;2.20;;
25609;SDS011;13479;49.044;8.716;2023-07-31T13:07:34;7.65;;;2.70;;
25609;SDS011;13479;49.044;8.716;2023-07-31T13:10:00;5.68;;;1.70;;
25609;SDS011;13479;49.044;8.716;2023-07-31T13:12:25;7.55;;;1.92;;
25609;SDS011;13479;49.044;8.716;2023-07-31T13:14:50;4.43;;;1.73;;
25609;SDS011;13479;49.044;8.716;2023-07-31T13:17:16;6.30;;;2.30;;
25609;SDS011;13479;49.044;8.716;2023-07-31T13:19:41;5.80;;;1.90;;
25609;SDS011;13479;49.044;8.716;2023-07-31T13:22:07;5.40;;;1.90;;
25609;SDS011;13479;49.044;8.716;2023-07-31T13:24:33;5.68;;;1.80;;
25609;SDS011;13479;49.044;8.716;2023-07-31T13:26:58;6.55;;;2.08;;
25609;SDS011;13479;49.044;8.716;2023-07-31T13:29:23;4.43;;;1.75;;
25609;SDS011;13479;49.044;8.716;2023-07-31T13:31:49;5.00;;;2.00;;
25609;SDS011;13479;49.044;8.716;2023-07-31T13:34:14;5.10;;;1.80;;
25609;SDS011;13479;49.044;8.716;2023-07-31T13:36:39;4.75;;;2.00;;
25609;SDS011;13479;49.044;8.716;2023-07-31T13:39:05;6.35;;;2.20;;
25609;SDS011;13479;49.044;8.716;2023-07-31T13:41:30;4.22;;;2.10;;
25609;SDS011;13479;49.044;8.716;2023-07-31T13:43:55;7.35;;;2.00;;
25609;SDS011;13479;49.044;8.716;2023-07-31T13:46:20;4.55;;;1.85;;
25609;SDS011;13479;49.044;8.716;2023-07-31T13:48:46;5.07;;;2.17;;
25609;SDS011;13479;49.044;8.716;2023-07-31T13:51:11;5.15;;;1.95;;
25609;SDS011;13479;49.044;8.716;2023-07-31T13:53:36;3.22;;;1.67;;
25609;SDS011;13479;49.044;8.716;2023-07-31T13:56:01;5.53;;;1.90;;
25609;SDS011;13479;49.044;8.716;2023-07-31T13:58:27;3.13;;;1.80;;
25609;SDS011;13479;49.044;8.716;2023-07-31T14:00:52;4.35;;;1.88;;
25609;SDS011;13479;49.044;8.716;2023-07-31T14:03:17;4.20;;;1.77;;
25609;SDS011;13479;49.044;8.716;2023-07-31T14:05:43;5.95;;;1.90;;
25609;SDS011;13479;49.044;8.716;2023-07-31T14:08:08;3.55;;;1.70;;
25609;SDS011;13479;49.044;8.716;2023-07-31T14:10:33;4.80;;;1.80;;
25609;SDS011;13479;49.044;8.716;2023-07-31T14:12:58;4.38;;;1.70;;
25609;SDS011;13479;49.044;8.716;2023-07-31T14:15:24;3.78;;;1.77;;
25609;SDS011;13479;49.044;8.716;2023-07-31T14:17:49;5.28;;;2.15;;
25609;SDS011;13479;49.044;8.716;2023-07-31T14:20:14;5.93;;;2.20;;
25609;SDS011;13479;49.044;8.716;2023-07-31T14:22:39;5.70;;;2.10;;
25609;SDS011;13479;49.044;8.716;2023-07-31T14:25:05;6.60;;;2.17;;
25609;SDS011;13479;49.044;8.716;2023-07-31T14:27:30;6.45;;;2.00;;
25609;SDS011;13479;49.044;8.716;2023-07-31T14:29:56;6.15;;;2.15;;
25609;SDS011;13479;49.044;8.716;2023-07-31T14:32:24;4.13;;;1.95;;
25609;SDS011;13479;49.044;8.716;2023-07-31T14:34:50;5.72;;;1.80;;
25609;SDS011;13479;49.044;8.716;2023-07-31T14:37:16;5.07;;;2.17;;
25609;SDS011;13479;49.044;8.716;2023-07-31T14:39:41;4.30;;;1.88;;
25609;SDS011;13479;49.044;8.716;2023-07-31T14:42:06;5.45;;;2.00;;
25609;SDS011;13479;49.044;8.716;2023-07-31T14:44:31;5.68;;;2.22;;
25609;SDS011;13479;49.044;8.716;2023-07-31T14:46:57;5.75;;;1.90;;
25609;SDS011;13479;49.044;8.716;2023-07-31T14:49:23;7.68;;;2.33;;
25609;SDS011;13479;49.044;8.716;2023-07-31T14:51:48;7.53;;;2.10;;
25609;SDS011;13479;49.044;8.716;2023-07-31T14:54:14;5.85;;;2.00;;
25609;SDS011;13479;49.044;8.716;2023-07-31T14:56:39;10.35;;;2.13;;
25609;SDS011;13479;49.044;8.716;2023-07-31T14:59:04;5.50;;;1.90;;
25609;SDS011;13479;49.044;8.716;2023-07-31T15:01:29;5.15;;;2.08;;
25609;SDS011;13479;49.044;8.716;2023-07-31T15:03:55;3.75;;;1.90;;
25609;SDS011;13479;49.044;8.716;2023-07-31T15:06:20;5.32;;;2.00;;
25609;SDS011;13479;49.044;8.716;2023-07-31T15:08:45;4.85;;;1.95;;
25609;SDS011;13479;49.044;8.716;2023-07-31T15:11:11;5.88;;;2.00;;
25609;SDS011;13479;49.044;8.716;2023-07-31T15:13:37;7.55;;;2.05;;
25609;SDS011;13479;49.044;8.716;2023-07-31T15:16:02;5.25;;;2.03;;
25609;SDS011;13479;49.044;8.716;2023-07-31T15:18:27;8.95;;;2.20;;
25609;SDS011;13479;49.044;8.716;2023-07-31T15:20:53;5.35;;;2.00;;
25609;SDS011;13479;49.044;8.716;2023-07-31T15:23:18;8.27;;;2.55;;
25609;SDS011;13479;49.044;8.716;2023-07-31T15:25:44;5.28;;;2.30;;
25609;SDS011;13479;49.044;8.716;2023-07-31T15:28:09;4.10;;;1.63;;
25609;SDS011;13479;49.044;8.716;2023-07-31T15:30:35;5.78;;;2.00;;
25609;SDS011;13479;49.044;8.716;2023-07-31T15:33:01;4.38;;;1.83;;
25609;SDS011;13479;49.044;8.716;2023-07-31T15:35:27;4.07;;;1.90;;
25609;SDS011;13479;49.044;8.716;2023-07-31T15:37:52;7.15;;;1.95;;
25609;SDS011;13479;49.044;8.716;2023-07-31T15:40:17;7.03;;;2.30;;
25609;SDS011;13479;49.044;8.716;2023-07-31T15:42:43;6.32;;;2.20;;
25609;SDS011;13479;49.044;8.716;2023-07-31T15:45:08;6.97;;;2.13;;
25609;SDS011;13479;49.044;8.716;2023-07-31T15:47:35;5.80;;;2.20;;
25609;SDS011;13479;49.044;8.716;2023-07-31T15:50:00;4.35;;;1.95;;
25609;SDS011;13479;49.044;8.716;2023-07-31T15:52:26;6.25;;;2.25;;
25609;SDS011;13479;49.044;8.716;2023-07-31T15:54:51;5.72;;;1.90;;
25609;SDS011;13479;49.044;8.716;2023-07-31T15:57:16;4.90;;;1.90;;
25609;SDS011;13479;49.044;8.716;2023-07-31T15:59:42;5.70;;;2.10;;
25609;SDS011;13479;49.044;8.716;2023-07-31T16:02:07;8.48;;;2.03;;
25609;SDS011;13479;49.044;8.716;2023-07-31T16:04:36;7.93;;;1.90;;
25609;SDS011;13479;49.044;8.716;2023-07-31T16:07:01;3.75;;;1.92;;
25609;SDS011;13479;49.044;8.716;2023-07-31T16:09:27;4.43;;;1.90;;
25609;SDS011;13479;49.044;8.716;2023-07-31T16:11:52;6.43;;;1.92;;
25609;SDS011;13479;49.044;8.716;2023-07-31T16:14:18;5.18;;;2.20;;
25609;SDS011;13479;49.044;8.716;2023-07-31T16:16:43;5.97;;;2.10;;
25609;SDS011;13479;49.044;8.716;2023-07-31T16:19:08;5.72;;;1.95;;
25609;SDS011;13479;49.044;8.716;2023-07-31T16:21:33;7.40;;;2.83;;
25609;SDS011;13479;49.044;8.716;2023-07-31T16:23:59;4.20;;;2.08;;
25609;SDS011;13479;49.044;8.716;2023-07-31T16:26:24;5.00;;;1.92;;
25609;SDS011;13479;49.044;8.716;2023-07-31T16:28:49;4.90;;;2.03;;
25609;SDS011;13479;49.044;8.716;2023-07-31T16:31:15;6.47;;;2.33;;
25609;SDS011;13479;49.044;8.716;2023-07-31T16:33:40;6.18;;;2.15;;
25609;SDS011;13479;49.044;8.716;2023-07-31T16:36:05;4.53;;;2.25;;
25609;SDS011;13479;49.044;8.716;2023-07-31T16:38:30;5.43;;;2.03;;
25609;SDS011;13479;49.044;8.716;2023-07-31T16:40:56;5.38;;;1.90;;
25609;SDS011;13479;49.044;8.716;2023-07-31T16:43:22;4.78;;;1.95;;
25609;SDS011;13479;49.044;8.716;2023-07-31T16:45:47;3.97;;;1.92;;
25609;SDS011;13479;49.044;8.716;2023-07-31T16:48:12;9.00;;;2.55;;
25609;SDS011;13479;49.044;8.716;2023-07-31T16:50:37;7.10;;;2.28;;
25609;SDS011;13479;49.044;8.716;2023-07-31T16:53:03;7.18;;;2.13;;
25609;SDS011;13479;49.044;8.716;2023-07-31T16:55:28;5.53;;;2.20;;
25609;SDS011;13479;49.044;8.716;2023-07-31T16:57:53;5.25;;;1.98;;
25609;SDS011;13479;49.044;8.716;2023-07-31T17:00:21;6.97;;;2.25;;
25609;SDS011;13479;49.044;8.716;2023-07-31T17:02:46;7.53;;;2.00;;
25609;SDS011;13479;49.044;8.716;2023-07-31T17:05:12;6.18;;;1.90;;
25609;SDS011;13479;49.044;8.716;2023-07-31T17:07:37;6.82;;;2.00;;
25609;SDS011;13479;49.044;8.716;2023-07-31T17:10:02;7.18;;;2.20;;
25609;SDS011;13479;49.044;8.716;2023-07-31T17:12:28;4.38;;;2.22;;
25609;SDS011;13479;49.044;8.716;2023-07-31T17:14:53;4.13;;;1.98;;
25609;SDS011;13479;49.044;8.716;2023-07-31T17:17:18;4.97;;;2.45;;
25609;SDS011;13479;49.044;8.716;2023-07-31T17:19:48;6.43;;;2.30;;
25609;SDS011;13479;49.044;8.716;2023-07-31T17:22:13;5.20;;;2.30;;
25609;SDS011;13479;49.044;8.716;2023-07-31T17:24:38;5.68;;;2.10;;
25609;SDS011;13479;49.044;8.716;2023-07-31T17:27:03;6.38;;;2.30;;
25609;SDS011;13479;49.044;8.716;2023-07-31T17:29:29;9.40;;;2.53;;
25609;SDS011;13479;49.044;8.716;2023-07-31T17:31:57;6.88;;;2.25;;
25609;SDS011;13479;49.044;8.716;2023-07-31T17:34:22;5.97;;;2.50;;
25609;SDS011;13479;49.044;8.716;2023-07-31T17:36:47;8.10;;;2.67;;
25609;SDS011;13479;49.044;8.716;2023-07-31T17:39:13;5.60;;;2.10;;
25609;SDS011;13479;49.044;8.716;2023-07-31T17:41:38;4.65;;;2.40;;
25609;SDS011;13479;49.044;8.716;2023-07-31T17:44:04;5.15;;;2.80;;
25609;SDS011;13479;49.044;8.716;2023-07-31T17:46:29;5.47;;;2.38;;
25609;SDS011;13479;49.044;8.716;2023-07-31T17:48:54;6.82;;;2.97;;
25609;SDS011;13479;49.044;8.716;2023-07-31T17:51:20;6.75;;;2.83;;
25609;SDS011;13479;49.044;8.716;2023-07-31T17:53:45;5.40;;;2.80;;
25609;SDS011;13479;49.044;8.716;2023-07-31T17:56:10;5.15;;;2.47;;
25609;SDS011;13479;49.044;8.716;2023-07-31T17:58:35;7.70;;;2.83;;
25609;SDS011;13479;49.044;8.716;2023-07-31T18:01:01;5.90;;;2.83;;
25609;SDS011;13479;49.044;8.716;2023-07-31T18:03:26;6.50;;;2.70;;
25609;SDS011;13479;49.044;8.716;2023-07-31T18:05:52;6.63;;;3.08;;
25609;SDS011;13479;49.044;8.716;2023-07-31T18:08:17;10.13;;;2.63;;
25609;SDS011;13479;49.044;8.716;2023-07-31T18:10:44;8.57;;;3.03;;
25609;SDS011;13479;49.044;8.716;2023-07-31T18:13:10;7.78;;;3.15;;
25609;SDS011;13479;49.044;8.716;2023-07-31T18:15:35;8.18;;;3.15;;
25609;SDS011;13479;49.044;8.716;2023-07-31T18:18:02;7.25;;;2.97;;
25609;SDS011;13479;49.044;8.716;2023-07-31T18:20:27;10.20;;;2.90;;
25609;SDS011;13479;49.044;8.716;2023-07-31T18:22:53;8.18;;;3.33;;
25609;SDS011;13479;49.044;8.716;2023-07-31T18:25:18;6.25;;;2.97;;
25609;SDS011;13479;49.044;8.716;2023-07-31T18:27:43;7.43;;;3.10;;
25609;SDS011;13479;49.044;8.716;2023-07-31T18:30:09;7.93;;;3.20;;
25609;SDS011;13479;49.044;8.716;2023-07-31T18:32:34;6.38;;;3.00;;
25609;SDS011;13479;49.044;8.716;2023-07-31T18:34:59;7.28;;;3.05;;
25609;SDS011;13479;49.044;8.716;2023-07-31T18:37:25;7.80;;;2.80;;
25609;SDS011;13479;49.044;8.716;2023-07-31T18:39:50;7.07;;;2.85;;
25609;SDS011;13479;49.044;8.716;2023-07-31T18:42:15;5.90;;;3.10;;
25609;SDS011;13479;49.044;8.716;2023-07-31T18:44:41;7.18;;;3.33;;
25609;SDS011;13479;49.044;8.716;2023-07-31T18:47:06;8.70;;;3.10;;
25609;SDS011;13479;49.044;8.716;2023-07-31T18:49:31;6.50;;;3.17;;